sensor_id;sensor_type;location;lat;lon;timestamp;P1;durP1;ratioP1;P2;durP2;ratioP2
37409;SDS011;23275;48.914;12.566;2023-09-18T00:01:49;6.30;;;5.40;;
37409;SDS011;23275;48.914;12.566;2023-09-18T00:04:15;8.38;;;5.35;;
37409;SDS011;23275;48.914;12.566;2023-09-18T00:06:40;6.57;;;5.28;;
37409;SDS011;23275;48.914;12.566;2023-09-18T00:09:06;7.28;;;4.85;;
37409;SDS011;23275;48.914;12.566;2023-09-18T00:11:36;6.97;;;5.35;;
37409;SDS011;23275;48.914;12.566;2023-09-18T00:14:03;5.97;;;4.97;;
37409;SDS011;23275;48.914;12.566;2023-09-18T00:16:28;6.13;;;4.60;;
37409;SDS011;23275;48.914;12.566;2023-09-18T00:18:54;6.22;;;5.10;;
37409;SDS011;23275;48.914;12.566;2023-09-18T00:21:19;8.50;;;6.00;;
37409;SDS011;23275;48.914;12.566;2023-09-18T00:23:45;6.38;;;5.03;;
37409;SDS011;23275;48.914;12.566;2023-09-18T00:26:11;8.45;;;5.45;;
37409;SDS011;23275;48.914;12.566;2023-09-18T00:28:37;5.93;;;4.95;;
37409;SDS011;23275;48.914;12.566;2023-09-18T00:31:02;7.13;;;4.82;;
37409;SDS011;23275;48.914;12.566;2023-09-18T00:33:28;4.80;;;4.22;;
37409;SDS011;23275;48.914;12.566;2023-09-18T00:35:54;6.90;;;4.53;;
37409;SDS011;23275;48.914;12.566;2023-09-18T00:38:19;6.07;;;4.75;;
37409;SDS011;23275;48.914;12.566;2023-09-18T00:40:45;5.95;;;4.53;;
37409;SDS011;23275;48.914;12.566;2023-09-18T00:43:11;6.20;;;4.63;;
37409;SDS011;23275;48.914;12.566;2023-09-18T00:45:40;7.53;;;5.25;;
37409;SDS011;23275;48.914;12.566;2023-09-18T00:48:09;6.43;;;4.45;;
37409;SDS011;23275;48.914;12.566;2023-09-18T00:50:35;6.13;;;5.05;;
37409;SDS011;23275;48.914;12.566;2023-09-18T00:53:02;6.80;;;5.03;;
37409;SDS011;23275;48.914;12.566;2023-09-18T00:55:28;5.72;;;5.00;;
37409;SDS011;23275;48.914;12.566;2023-09-18T00:57:56;5.53;;;4.68;;
37409;SDS011;23275;48.914;12.566;2023-09-18T01:00:22;6.03;;;4.82;;
37409;SDS011;23275;48.914;12.566;2023-09-18T01:02:47;6.10;;;4.72;;
37409;SDS011;23275;48.914;12.566;2023-09-18T01:05:13;7.90;;;5.35;;
37409;SDS011;23275;48.914;12.566;2023-09-18T01:07:41;6.15;;;4.80;;
37409;SDS011;23275;48.914;12.566;2023-09-18T01:10:07;6.85;;;5.13;;
37409;SDS011;23275;48.914;12.566;2023-09-18T01:15:18;7.47;;;4.88;;
37409;SDS011;23275;48.914;12.566;2023-09-18T01:17:48;7.22;;;5.20;;
37409;SDS011;23275;48.914;12.566;2023-09-18T01:20:14;6.85;;;4.82;;
37409;SDS011;23275;48.914;12.566;2023-09-18T01:22:39;5.97;;;4.43;;
37409;SDS011;23275;48.914;12.566;2023-09-18T01:25:05;7.50;;;4.07;;
37409;SDS011;23275;48.914;12.566;2023-09-18T01:27:31;7.13;;;4.40;;
37409;SDS011;23275;48.914;12.566;2023-09-18T01:29:57;8.77;;;4.38;;
37409;SDS011;23275;48.914;12.566;2023-09-18T01:32:24;7.82;;;4.80;;
37409;SDS011;23275;48.914;12.566;2023-09-18T01:34:53;6.70;;;4.13;;
37409;SDS011;23275;48.914;12.566;2023-09-18T01:37:22;7.35;;;4.10;;
37409;SDS011;23275;48.914;12.566;2023-09-18T01:39:51;6.43;;;4.85;;
37409;SDS011;23275;48.914;12.566;2023-09-18T01:42:18;8.70;;;5.00;;
37409;SDS011;23275;48.914;12.566;2023-09-18T01:44:44;6.97;;;4.90;;
37409;SDS011;23275;48.914;12.566;2023-09-18T01:47:13;6.28;;;5.18;;
37409;SDS011;23275;48.914;12.566;2023-09-18T01:49:41;6.32;;;4.95;;
37409;SDS011;23275;48.914;12.566;2023-09-18T01:52:07;6.28;;;5.07;;
37409;SDS011;23275;48.914;12.566;2023-09-18T01:54:34;7.60;;;5.13;;
37409;SDS011;23275;48.914;12.566;2023-09-18T01:57:00;7.05;;;5.28;;
37409;SDS011;23275;48.914;12.566;2023-09-18T01:59:27;6.10;;;5.10;;
37409;SDS011;23275;48.914;12.566;2023-09-18T02:01:53;6.05;;;4.63;;
37409;SDS011;23275;48.914;12.566;2023-09-18T02:04:19;7.72;;;5.13;;
37409;SDS011;23275;48.914;12.566;2023-09-18T02:06:46;7.38;;;4.82;;
37409;SDS011;23275;48.914;12.566;2023-09-18T02:09:12;6.97;;;4.50;;
37409;SDS011;23275;48.914;12.566;2023-09-18T02:11:38;8.27;;;5.20;;
37409;SDS011;23275;48.914;12.566;2023-09-18T02:14:05;5.88;;;5.00;;
37409;SDS011;23275;48.914;12.566;2023-09-18T02:16:38;7.55;;;5.78;;
37409;SDS011;23275;48.914;12.566;2023-09-18T02:19:12;7.53;;;5.43;;
37409;SDS011;23275;48.914;12.566;2023-09-18T02:21:39;8.95;;;6.00;;
37409;SDS011;23275;48.914;12.566;2023-09-18T02:24:05;8.32;;;5.75;;
37409;SDS011;23275;48.914;12.566;2023-09-18T02:26:31;8.15;;;5.93;;
37409;SDS011;23275;48.914;12.566;2023-09-18T02:28:58;8.13;;;5.97;;
37409;SDS011;23275;48.914;12.566;2023-09-18T02:31:25;8.68;;;5.50;;
37409;SDS011;23275;48.914;12.566;2023-09-18T02:33:50;6.90;;;5.80;;
37409;SDS011;23275;48.914;12.566;2023-09-18T02:36:16;8.05;;;5.43;;
37409;SDS011;23275;48.914;12.566;2023-09-18T02:38:42;7.63;;;5.15;;
37409;SDS011;23275;48.914;12.566;2023-09-18T02:41:08;8.05;;;5.28;;
37409;SDS011;23275;48.914;12.566;2023-09-18T02:43:34;6.00;;;4.90;;
37409;SDS011;23275;48.914;12.566;2023-09-18T02:46:00;6.68;;;4.90;;
37409;SDS011;23275;48.914;12.566;2023-09-18T02:48:25;6.53;;;4.97;;
37409;SDS011;23275;48.914;12.566;2023-09-18T02:50:51;6.40;;;5.03;;
37409;SDS011;23275;48.914;12.566;2023-09-18T02:53:18;9.68;;;4.85;;
37409;SDS011;23275;48.914;12.566;2023-09-18T02:55:49;6.22;;;5.35;;
37409;SDS011;23275;48.914;12.566;2023-09-18T02:58:15;6.65;;;5.28;;
37409;SDS011;23275;48.914;12.566;2023-09-18T03:00:42;6.88;;;5.30;;
37409;SDS011;23275;48.914;12.566;2023-09-18T03:03:11;7.60;;;5.15;;
37409;SDS011;23275;48.914;12.566;2023-09-18T03:05:38;9.40;;;5.70;;
37409;SDS011;23275;48.914;12.566;2023-09-18T03:08:04;7.18;;;4.88;;
37409;SDS011;23275;48.914;12.566;2023-09-18T03:10:36;6.07;;;4.40;;
37409;SDS011;23275;48.914;12.566;2023-09-18T03:13:04;6.80;;;4.65;;
37409;SDS011;23275;48.914;12.566;2023-09-18T03:15:31;7.25;;;5.55;;
37409;SDS011;23275;48.914;12.566;2023-09-18T03:17:57;9.30;;;5.57;;
37409;SDS011;23275;48.914;12.566;2023-09-18T03:20:24;6.63;;;5.40;;
37409;SDS011;23275;48.914;12.566;2023-09-18T03:22:50;8.23;;;5.25;;
37409;SDS011;23275;48.914;12.566;2023-09-18T03:25:17;7.97;;;5.45;;
37409;SDS011;23275;48.914;12.566;2023-09-18T03:27:42;7.38;;;4.97;;
37409;SDS011;23275;48.914;12.566;2023-09-18T03:30:08;6.47;;;5.13;;
37409;SDS011;23275;48.914;12.566;2023-09-18T03:32:34;7.57;;;5.15;;
37409;SDS011;23275;48.914;12.566;2023-09-18T03:35:01;7.55;;;4.93;;
37409;SDS011;23275;48.914;12.566;2023-09-18T03:37:26;9.07;;;5.07;;
37409;SDS011;23275;48.914;12.566;2023-09-18T03:39:52;5.85;;;4.90;;
37409;SDS011;23275;48.914;12.566;2023-09-18T03:42:17;7.15;;;5.10;;
37409;SDS011;23275;48.914;12.566;2023-09-18T03:44:43;11.27;;;5.50;;
37409;SDS011;23275;48.914;12.566;2023-09-18T03:47:08;7.55;;;5.32;;
37409;SDS011;23275;48.914;12.566;2023-09-18T03:49:34;8.07;;;5.68;;
37409;SDS011;23275;48.914;12.566;2023-09-18T03:51:59;9.98;;;5.32;;
37409;SDS011;23275;48.914;12.566;2023-09-18T03:54:25;6.97;;;5.20;;
37409;SDS011;23275;48.914;12.566;2023-09-18T03:56:50;8.27;;;4.43;;
37409;SDS011;23275;48.914;12.566;2023-09-18T03:59:16;9.65;;;5.15;;
37409;SDS011;23275;48.914;12.566;2023-09-18T04:01:41;7.15;;;4.70;;
37409;SDS011;23275;48.914;12.566;2023-09-18T04:04:07;5.63;;;4.50;;
37409;SDS011;23275;48.914;12.566;2023-09-18T04:06:51;6.90;;;5.22;;
37409;SDS011;23275;48.914;12.566;2023-09-18T04:09:16;5.80;;;4.68;;
37409;SDS011;23275;48.914;12.566;2023-09-18T04:11:43;7.82;;;5.00;;
37409;SDS011;23275;48.914;12.566;2023-09-18T04:14:08;5.55;;;4.65;;
37409;SDS011;23275;48.914;12.566;2023-09-18T04:16:34;6.13;;;4.57;;
37409;SDS011;23275;48.914;12.566;2023-09-18T04:19:01;7.68;;;4.60;;
37409;SDS011;23275;48.914;12.566;2023-09-18T04:21:27;6.50;;;4.07;;
37409;SDS011;23275;48.914;12.566;2023-09-18T04:23:54;6.53;;;4.75;;
37409;SDS011;23275;48.914;12.566;2023-09-18T04:26:22;5.90;;;4.65;;
37409;SDS011;23275;48.914;12.566;2023-09-18T04:28:49;7.57;;;4.20;;
37409;SDS011;23275;48.914;12.566;2023-09-18T04:31:14;10.07;;;4.30;;
37409;SDS011;23275;48.914;12.566;2023-09-18T04:33:41;6.07;;;4.38;;
37409;SDS011;23275;48.914;12.566;2023-09-18T04:36:06;8.70;;;4.95;;
37409;SDS011;23275;48.914;12.566;2023-09-18T04:38:33;7.00;;;4.78;;
37409;SDS011;23275;48.914;12.566;2023-09-18T04:41:01;5.75;;;4.50;;
37409;SDS011;23275;48.914;12.566;2023-09-18T04:43:27;7.53;;;5.07;;
37409;SDS011;23275;48.914;12.566;2023-09-18T04:45:54;6.10;;;5.10;;
37409;SDS011;23275;48.914;12.566;2023-09-18T04:48:20;6.95;;;4.90;;
37409;SDS011;23275;48.914;12.566;2023-09-18T04:50:46;9.43;;;5.30;;
37409;SDS011;23275;48.914;12.566;2023-09-18T04:53:12;6.20;;;5.03;;
37409;SDS011;23275;48.914;12.566;2023-09-18T04:55:38;7.97;;;5.13;;
37409;SDS011;23275;48.914;12.566;2023-09-18T04:58:03;8.63;;;5.20;;
37409;SDS011;23275;48.914;12.566;2023-09-18T05:00:30;7.25;;;5.70;;
37409;SDS011;23275;48.914;12.566;2023-09-18T05:02:57;6.45;;;5.10;;
37409;SDS011;23275;48.914;12.566;2023-09-18T05:05:25;6.65;;;4.93;;
37409;SDS011;23275;48.914;12.566;2023-09-18T05:07:51;7.90;;;6.68;;
37409;SDS011;23275;48.914;12.566;2023-09-18T05:10:16;7.05;;;4.70;;
37409;SDS011;23275;48.914;12.566;2023-09-18T05:12:42;6.57;;;5.47;;
37409;SDS011;23275;48.914;12.566;2023-09-18T05:15:08;7.75;;;5.35;;
37409;SDS011;23275;48.914;12.566;2023-09-18T05:17:45;7.47;;;5.40;;
37409;SDS011;23275;48.914;12.566;2023-09-18T05:20:13;6.82;;;5.40;;
37409;SDS011;23275;48.914;12.566;2023-09-18T05:22:44;7.18;;;5.03;;
37409;SDS011;23275;48.914;12.566;2023-09-18T05:25:10;7.28;;;4.93;;
37409;SDS011;23275;48.914;12.566;2023-09-18T05:27:36;6.57;;;4.75;;
37409;SDS011;23275;48.914;12.566;2023-09-18T05:30:13;5.57;;;4.75;;
37409;SDS011;23275;48.914;12.566;2023-09-18T05:32:40;8.70;;;5.13;;
37409;SDS011;23275;48.914;12.566;2023-09-18T05:35:07;6.82;;;5.22;;
37409;SDS011;23275;48.914;12.566;2023-09-18T05:37:36;6.07;;;5.00;;
37409;SDS011;23275;48.914;12.566;2023-09-18T05:40:03;5.85;;;4.55;;
37409;SDS011;23275;48.914;12.566;2023-09-18T05:42:32;7.78;;;4.57;;
37409;SDS011;23275;48.914;12.566;2023-09-18T05:44:57;11.15;;;4.80;;
37409;SDS011;23275;48.914;12.566;2023-09-18T05:47:23;7.38;;;4.70;;
37409;SDS011;23275;48.914;12.566;2023-09-18T05:49:49;9.60;;;4.57;;
37409;SDS011;23275;48.914;12.566;2023-09-18T05:52:14;9.27;;;4.80;;
37409;SDS011;23275;48.914;12.566;2023-09-18T05:54:40;6.43;;;4.32;;
37409;SDS011;23275;48.914;12.566;2023-09-18T05:57:05;5.90;;;4.63;;
37409;SDS011;23275;48.914;12.566;2023-09-18T05:59:32;8.30;;;4.45;;
37409;SDS011;23275;48.914;12.566;2023-09-18T06:01:57;7.22;;;4.10;;
37409;SDS011;23275;48.914;12.566;2023-09-18T06:04:23;7.43;;;4.60;;
37409;SDS011;23275;48.914;12.566;2023-09-18T06:06:49;9.15;;;4.72;;
37409;SDS011;23275;48.914;12.566;2023-09-18T06:09:16;7.15;;;5.10;;
37409;SDS011;23275;48.914;12.566;2023-09-18T06:11:41;6.25;;;4.88;;
37409;SDS011;23275;48.914;12.566;2023-09-18T06:14:07;8.80;;;5.18;;
37409;SDS011;23275;48.914;12.566;2023-09-18T06:16:33;8.52;;;4.68;;
37409;SDS011;23275;48.914;12.566;2023-09-18T06:18:58;7.60;;;4.28;;
37409;SDS011;23275;48.914;12.566;2023-09-18T06:21:25;7.63;;;5.05;;
37409;SDS011;23275;48.914;12.566;2023-09-18T06:23:50;5.97;;;4.93;;
37409;SDS011;23275;48.914;12.566;2023-09-18T06:26:16;6.40;;;4.90;;
37409;SDS011;23275;48.914;12.566;2023-09-18T06:28:43;5.90;;;5.20;;
37409;SDS011;23275;48.914;12.566;2023-09-18T06:31:09;7.90;;;5.07;;
37409;SDS011;23275;48.914;12.566;2023-09-18T06:33:36;6.63;;;4.72;;
37409;SDS011;23275;48.914;12.566;2023-09-18T06:36:02;6.85;;;4.85;;
37409;SDS011;23275;48.914;12.566;2023-09-18T06:38:28;7.45;;;4.60;;
37409;SDS011;23275;48.914;12.566;2023-09-18T06:40:53;8.07;;;4.88;;
37409;SDS011;23275;48.914;12.566;2023-09-18T06:43:20;6.53;;;4.82;;
37409;SDS011;23275;48.914;12.566;2023-09-18T06:45:45;8.80;;;4.50;;
37409;SDS011;23275;48.914;12.566;2023-09-18T06:48:11;7.47;;;4.80;;
37409;SDS011;23275;48.914;12.566;2023-09-18T06:50:38;7.65;;;4.72;;
37409;SDS011;23275;48.914;12.566;2023-09-18T06:53:04;8.60;;;4.72;;
37409;SDS011;23275;48.914;12.566;2023-09-18T06:55:30;6.97;;;5.47;;
37409;SDS011;23275;48.914;12.566;2023-09-18T06:57:55;6.18;;;4.50;;
37409;SDS011;23275;48.914;12.566;2023-09-18T07:00:21;7.93;;;4.55;;
37409;SDS011;23275;48.914;12.566;2023-09-18T07:02:47;9.40;;;4.45;;
37409;SDS011;23275;48.914;12.566;2023-09-18T07:05:14;12.05;;;4.20;;
37409;SDS011;23275;48.914;12.566;2023-09-18T07:07:40;14.48;;;4.10;;
37409;SDS011;23275;48.914;12.566;2023-09-18T07:10:05;16.13;;;3.97;;
37409;SDS011;23275;48.914;12.566;2023-09-18T07:12:31;7.72;;;4.68;;
37409;SDS011;23275;48.914;12.566;2023-09-18T07:14:58;5.88;;;3.80;;
37409;SDS011;23275;48.914;12.566;2023-09-18T07:17:31;7.47;;;4.15;;
37409;SDS011;23275;48.914;12.566;2023-09-18T07:19:57;4.82;;;4.03;;
37409;SDS011;23275;48.914;12.566;2023-09-18T07:22:23;4.03;;;3.40;;
37409;SDS011;23275;48.914;12.566;2023-09-18T07:24:48;4.60;;;3.80;;
37409;SDS011;23275;48.914;12.566;2023-09-18T07:27:14;5.43;;;3.83;;
37409;SDS011;23275;48.914;12.566;2023-09-18T07:29:39;6.45;;;3.70;;
37409;SDS011;23275;48.914;12.566;2023-09-18T07:32:05;4.78;;;3.60;;
37409;SDS011;23275;48.914;12.566;2023-09-18T07:34:31;7.43;;;3.45;;
37409;SDS011;23275;48.914;12.566;2023-09-18T07:36:57;5.43;;;3.65;;
37409;SDS011;23275;48.914;12.566;2023-09-18T07:39:23;11.95;;;4.22;;
37409;SDS011;23275;48.914;12.566;2023-09-18T07:41:48;9.82;;;3.97;;
37409;SDS011;23275;48.914;12.566;2023-09-18T07:44:20;7.60;;;3.70;;
37409;SDS011;23275;48.914;12.566;2023-09-18T07:46:46;5.75;;;3.25;;
37409;SDS011;23275;48.914;12.566;2023-09-18T07:49:11;6.38;;;3.63;;
37409;SDS011;23275;48.914;12.566;2023-09-18T07:51:38;6.60;;;3.33;;
37409;SDS011;23275;48.914;12.566;2023-09-18T07:54:03;9.18;;;3.60;;
37409;SDS011;23275;48.914;12.566;2023-09-18T07:56:29;8.55;;;3.22;;
37409;SDS011;23275;48.914;12.566;2023-09-18T07:58:59;7.38;;;3.42;;
37409;SDS011;23275;48.914;12.566;2023-09-18T08:01:25;10.07;;;4.20;;
37409;SDS011;23275;48.914;12.566;2023-09-18T08:03:51;9.27;;;3.33;;
37409;SDS011;23275;48.914;12.566;2023-09-18T08:06:16;7.65;;;3.47;;
37409;SDS011;23275;48.914;12.566;2023-09-18T08:08:44;12.18;;;3.95;;
37409;SDS011;23275;48.914;12.566;2023-09-18T08:11:10;5.78;;;3.08;;
37409;SDS011;23275;48.914;12.566;2023-09-18T08:13:36;4.25;;;3.03;;
37409;SDS011;23275;48.914;12.566;2023-09-18T08:16:02;3.92;;;2.65;;
37409;SDS011;23275;48.914;12.566;2023-09-18T08:18:30;4.13;;;2.80;;
37409;SDS011;23275;48.914;12.566;2023-09-18T08:20:56;4.07;;;2.78;;
37409;SDS011;23275;48.914;12.566;2023-09-18T08:23:23;4.97;;;3.05;;
37409;SDS011;23275;48.914;12.566;2023-09-18T08:25:49;4.60;;;3.00;;
37409;SDS011;23275;48.914;12.566;2023-09-18T08:28:16;4.15;;;3.30;;
37409;SDS011;23275;48.914;12.566;2023-09-18T08:30:42;6.75;;;3.75;;
37409;SDS011;23275;48.914;12.566;2023-09-18T08:33:12;3.60;;;3.05;;
37409;SDS011;23275;48.914;12.566;2023-09-18T08:35:38;4.43;;;2.85;;
37409;SDS011;23275;48.914;12.566;2023-09-18T08:38:04;4.88;;;2.83;;
37409;SDS011;23275;48.914;12.566;2023-09-18T08:40:30;5.95;;;3.13;;
37409;SDS011;23275;48.914;12.566;2023-09-18T08:42:56;3.80;;;2.22;;
37409;SDS011;23275;48.914;12.566;2023-09-18T08:45:26;4.57;;;2.80;;
37409;SDS011;23275;48.914;12.566;2023-09-18T08:47:58;3.20;;;2.45;;
37409;SDS011;23275;48.914;12.566;2023-09-18T08:50:25;6.07;;;2.88;;
37409;SDS011;23275;48.914;12.566;2023-09-18T08:52:51;3.60;;;2.55;;
37409;SDS011;23275;48.914;12.566;2023-09-18T08:55:17;4.60;;;2.22;;
37409;SDS011;23275;48.914;12.566;2023-09-18T08:57:43;3.63;;;2.25;;
37409;SDS011;23275;48.914;12.566;2023-09-18T09:00:11;3.58;;;2.20;;
37409;SDS011;23275;48.914;12.566;2023-09-18T09:02:42;5.80;;;2.17;;
37409;SDS011;23275;48.914;12.566;2023-09-18T09:05:13;4.25;;;2.00;;
37409;SDS011;23275;48.914;12.566;2023-09-18T09:07:39;4.05;;;2.53;;
37409;SDS011;23275;48.914;12.566;2023-09-18T09:10:05;4.03;;;2.75;;
37409;SDS011;23275;48.914;12.566;2023-09-18T09:15:34;2.35;;;1.70;;
37409;SDS011;23275;48.914;12.566;2023-09-18T09:18:12;3.05;;;2.05;;
37409;SDS011;23275;48.914;12.566;2023-09-18T09:20:40;7.88;;;2.72;;
37409;SDS011;23275;48.914;12.566;2023-09-18T09:23:07;5.65;;;2.95;;
37409;SDS011;23275;48.914;12.566;2023-09-18T09:25:34;3.45;;;2.65;;
37409;SDS011;23275;48.914;12.566;2023-09-18T09:28:01;4.28;;;2.35;;
37409;SDS011;23275;48.914;12.566;2023-09-18T09:30:30;4.95;;;2.95;;
37409;SDS011;23275;48.914;12.566;2023-09-18T09:32:56;6.15;;;2.33;;
37409;SDS011;23275;48.914;12.566;2023-09-18T09:35:24;5.28;;;2.33;;
37409;SDS011;23275;48.914;12.566;2023-09-18T09:38:14;5.10;;;2.80;;
37409;SDS011;23275;48.914;12.566;2023-09-18T09:40:41;5.07;;;2.63;;
37409;SDS011;23275;48.914;12.566;2023-09-18T09:43:09;4.60;;;1.95;;
37409;SDS011;23275;48.914;12.566;2023-09-18T09:45:36;3.47;;;2.20;;
37409;SDS011;23275;48.914;12.566;2023-09-18T09:48:05;4.00;;;2.50;;
37409;SDS011;23275;48.914;12.566;2023-09-18T09:50:32;3.95;;;2.30;;
37409;SDS011;23275;48.914;12.566;2023-09-18T09:52:58;7.78;;;2.33;;
37409;SDS011;23275;48.914;12.566;2023-09-18T09:55:28;4.60;;;2.17;;
37409;SDS011;23275;48.914;12.566;2023-09-18T09:58:01;6.13;;;2.22;;
37409;SDS011;23275;48.914;12.566;2023-09-18T10:00:32;3.67;;;2.33;;
37409;SDS011;23275;48.914;12.566;2023-09-18T10:03:05;5.32;;;3.05;;
37409;SDS011;23275;48.914;12.566;2023-09-18T10:05:35;4.47;;;2.38;;
37409;SDS011;23275;48.914;12.566;2023-09-18T10:08:03;4.68;;;2.40;;
37409;SDS011;23275;48.914;12.566;2023-09-18T10:10:33;4.57;;;2.50;;
37409;SDS011;23275;48.914;12.566;2023-09-18T10:13:09;4.85;;;2.00;;
37409;SDS011;23275;48.914;12.566;2023-09-18T10:15:40;3.22;;;1.90;;
37409;SDS011;23275;48.914;12.566;2023-09-18T10:18:10;3.97;;;2.03;;
37409;SDS011;23275;48.914;12.566;2023-09-18T10:20:47;4.40;;;2.05;;
37409;SDS011;23275;48.914;12.566;2023-09-18T10:23:34;4.70;;;2.38;;
37409;SDS011;23275;48.914;12.566;2023-09-18T10:26:12;2.60;;;1.90;;
37409;SDS011;23275;48.914;12.566;2023-09-18T10:28:45;3.67;;;2.33;;
37409;SDS011;23275;48.914;12.566;2023-09-18T10:31:11;2.78;;;1.85;;
37409;SDS011;23275;48.914;12.566;2023-09-18T10:33:38;4.05;;;2.30;;
37409;SDS011;23275;48.914;12.566;2023-09-18T10:36:05;5.03;;;2.10;;
37409;SDS011;23275;48.914;12.566;2023-09-18T10:38:33;5.85;;;2.35;;
37409;SDS011;23275;48.914;12.566;2023-09-18T10:41:01;3.20;;;1.90;;
37409;SDS011;23275;48.914;12.566;2023-09-18T10:43:28;5.03;;;2.10;;
37409;SDS011;23275;48.914;12.566;2023-09-18T10:45:53;8.07;;;2.60;;
37409;SDS011;23275;48.914;12.566;2023-09-18T10:48:20;5.20;;;2.50;;
37409;SDS011;23275;48.914;12.566;2023-09-18T10:50:47;4.28;;;2.47;;
37409;SDS011;23275;48.914;12.566;2023-09-18T10:53:13;3.20;;;2.13;;
37409;SDS011;23275;48.914;12.566;2023-09-18T10:55:39;3.72;;;2.55;;
37409;SDS011;23275;48.914;12.566;2023-09-18T10:58:07;7.03;;;3.00;;
37409;SDS011;23275;48.914;12.566;2023-09-18T11:00:32;5.78;;;3.10;;
37409;SDS011;23275;48.914;12.566;2023-09-18T11:03:17;8.63;;;3.05;;
37409;SDS011;23275;48.914;12.566;2023-09-18T11:05:46;3.35;;;2.53;;
37409;SDS011;23275;48.914;12.566;2023-09-18T11:11:11;7.43;;;2.53;;
37409;SDS011;23275;48.914;12.566;2023-09-18T11:13:52;4.25;;;2.65;;
37409;SDS011;23275;48.914;12.566;2023-09-18T11:18:53;5.07;;;2.55;;
37409;SDS011;23275;48.914;12.566;2023-09-18T11:21:25;6.75;;;2.50;;
37409;SDS011;23275;48.914;12.566;2023-09-18T11:23:58;3.97;;;2.75;;
37409;SDS011;23275;48.914;12.566;2023-09-18T11:26:24;4.55;;;2.90;;
37409;SDS011;23275;48.914;12.566;2023-09-18T11:28:55;3.95;;;2.78;;
37409;SDS011;23275;48.914;12.566;2023-09-18T11:31:20;4.00;;;2.90;;
37409;SDS011;23275;48.914;12.566;2023-09-18T11:36:48;5.13;;;2.80;;
37409;SDS011;23275;48.914;12.566;2023-09-18T11:39:32;5.13;;;3.20;;
37409;SDS011;23275;48.914;12.566;2023-09-18T11:42:10;8.43;;;2.92;;
37409;SDS011;23275;48.914;12.566;2023-09-18T11:44:38;6.72;;;3.67;;
37409;SDS011;23275;48.914;12.566;2023-09-18T11:47:11;7.05;;;3.20;;
37409;SDS011;23275;48.914;12.566;2023-09-18T11:49:48;3.95;;;2.75;;
37409;SDS011;23275;48.914;12.566;2023-09-18T11:52:23;5.75;;;2.85;;
37409;SDS011;23275;48.914;12.566;2023-09-18T11:54:55;7.53;;;3.08;;
37409;SDS011;23275;48.914;12.566;2023-09-18T11:57:22;7.43;;;3.60;;
37409;SDS011;23275;48.914;12.566;2023-09-18T11:59:49;6.00;;;3.05;;
37409;SDS011;23275;48.914;12.566;2023-09-18T12:02:28;8.10;;;3.28;;
37409;SDS011;23275;48.914;12.566;2023-09-18T12:05:11;5.35;;;3.35;;
37409;SDS011;23275;48.914;12.566;2023-09-18T12:07:40;4.55;;;3.05;;
37409;SDS011;23275;48.914;12.566;2023-09-18T12:10:12;7.53;;;3.50;;
37409;SDS011;23275;48.914;12.566;2023-09-18T12:12:39;11.52;;;3.40;;
37409;SDS011;23275;48.914;12.566;2023-09-18T12:15:07;7.95;;;3.22;;
37409;SDS011;23275;48.914;12.566;2023-09-18T12:17:36;4.35;;;2.58;;
37409;SDS011;23275;48.914;12.566;2023-09-18T12:20:02;6.15;;;2.78;;
37409;SDS011;23275;48.914;12.566;2023-09-18T12:22:29;7.70;;;2.95;;
37409;SDS011;23275;48.914;12.566;2023-09-18T12:25:09;6.28;;;2.78;;
37409;SDS011;23275;48.914;12.566;2023-09-18T12:27:36;10.75;;;3.53;;
37409;SDS011;23275;48.914;12.566;2023-09-18T12:30:03;7.55;;;3.20;;
37409;SDS011;23275;48.914;12.566;2023-09-18T12:32:32;6.93;;;2.72;;
37409;SDS011;23275;48.914;12.566;2023-09-18T12:35:00;12.82;;;3.70;;
37409;SDS011;23275;48.914;12.566;2023-09-18T12:37:26;7.32;;;2.95;;
37409;SDS011;23275;48.914;12.566;2023-09-18T12:39:52;8.30;;;3.00;;
37409;SDS011;23275;48.914;12.566;2023-09-18T12:42:21;8.98;;;3.22;;
37409;SDS011;23275;48.914;12.566;2023-09-18T12:44:47;7.13;;;3.03;;
37409;SDS011;23275;48.914;12.566;2023-09-18T12:47:14;12.45;;;3.70;;
37409;SDS011;23275;48.914;12.566;2023-09-18T12:49:40;9.25;;;3.30;;
37409;SDS011;23275;48.914;12.566;2023-09-18T12:52:06;12.50;;;3.50;;
37409;SDS011;23275;48.914;12.566;2023-09-18T12:54:38;9.63;;;3.45;;
37409;SDS011;23275;48.914;12.566;2023-09-18T12:57:15;6.32;;;3.35;;
37409;SDS011;23275;48.914;12.566;2023-09-18T12:59:41;11.07;;;3.70;;
37409;SDS011;23275;48.914;12.566;2023-09-18T13:02:06;6.47;;;3.55;;
37409;SDS011;23275;48.914;12.566;2023-09-18T13:04:36;11.20;;;3.55;;
37409;SDS011;23275;48.914;12.566;2023-09-18T13:07:12;6.63;;;2.92;;
37409;SDS011;23275;48.914;12.566;2023-09-18T13:09:39;8.82;;;3.28;;
37409;SDS011;23275;48.914;12.566;2023-09-18T13:12:06;10.80;;;3.05;;
37409;SDS011;23275;48.914;12.566;2023-09-18T13:17:24;11.43;;;2.10;;
37409;SDS011;23275;48.914;12.566;2023-09-18T13:19:50;8.85;;;2.20;;
37409;SDS011;23275;48.914;12.566;2023-09-18T13:22:23;6.72;;;2.28;;
37409;SDS011;23275;48.914;12.566;2023-09-18T13:24:58;7.85;;;2.38;;
37409;SDS011;23275;48.914;12.566;2023-09-18T13:27:23;7.90;;;2.65;;
37409;SDS011;23275;48.914;12.566;2023-09-18T13:29:49;11.45;;;2.30;;
37409;SDS011;23275;48.914;12.566;2023-09-18T13:32:16;9.15;;;2.15;;
37409;SDS011;23275;48.914;12.566;2023-09-18T13:34:42;6.60;;;1.83;;
37409;SDS011;23275;48.914;12.566;2023-09-18T13:37:07;12.73;;;2.60;;
37409;SDS011;23275;48.914;12.566;2023-09-18T13:39:33;7.97;;;2.08;;
37409;SDS011;23275;48.914;12.566;2023-09-18T13:41:58;11.05;;;2.15;;
37409;SDS011;23275;48.914;12.566;2023-09-18T13:44:24;7.70;;;2.55;;
37409;SDS011;23275;48.914;12.566;2023-09-18T13:46:49;6.00;;;1.80;;
37409;SDS011;23275;48.914;12.566;2023-09-18T13:49:15;7.07;;;1.90;;
37409;SDS011;23275;48.914;12.566;2023-09-18T13:51:41;7.35;;;1.67;;
37409;SDS011;23275;48.914;12.566;2023-09-18T13:54:06;9.13;;;1.65;;
37409;SDS011;23275;48.914;12.566;2023-09-18T13:56:32;6.15;;;1.60;;
37409;SDS011;23275;48.914;12.566;2023-09-18T13:58:58;5.25;;;0.80;;
37409;SDS011;23275;48.914;12.566;2023-09-18T14:01:23;6.13;;;0.90;;
37409;SDS011;23275;48.914;12.566;2023-09-18T14:03:53;15.13;;;1.30;;
37409;SDS011;23275;48.914;12.566;2023-09-18T14:06:19;7.88;;;1.08;;
37409;SDS011;23275;48.914;12.566;2023-09-18T14:08:45;4.40;;;0.52;;
37409;SDS011;23275;48.914;12.566;2023-09-18T14:11:10;2.38;;;0.40;;
37409;SDS011;23275;48.914;12.566;2023-09-18T14:13:37;2.92;;;0.70;;
37409;SDS011;23275;48.914;12.566;2023-09-18T14:16:02;4.28;;;0.68;;
37409;SDS011;23275;48.914;12.566;2023-09-18T14:18:28;7.95;;;0.70;;
37409;SDS011;23275;48.914;12.566;2023-09-18T14:20:54;3.58;;;0.65;;
37409;SDS011;23275;48.914;12.566;2023-09-18T14:23:20;8.98;;;1.00;;
37409;SDS011;23275;48.914;12.566;2023-09-18T14:25:46;8.25;;;0.90;;
37409;SDS011;23275;48.914;12.566;2023-09-18T14:28:12;5.88;;;0.60;;
37409;SDS011;23275;48.914;12.566;2023-09-18T14:30:38;4.07;;;0.95;;
37409;SDS011;23275;48.914;12.566;2023-09-18T14:33:04;2.03;;;0.50;;
37409;SDS011;23275;48.914;12.566;2023-09-18T14:35:29;3.05;;;0.50;;
37409;SDS011;23275;48.914;12.566;2023-09-18T14:37:55;4.40;;;0.60;;
37409;SDS011;23275;48.914;12.566;2023-09-18T14:40:21;3.95;;;0.70;;
37409;SDS011;23275;48.914;12.566;2023-09-18T14:42:46;5.30;;;0.70;;
37409;SDS011;23275;48.914;12.566;2023-09-18T14:45:12;5.25;;;0.55;;
37409;SDS011;23275;48.914;12.566;2023-09-18T14:47:38;4.35;;;0.80;;
37409;SDS011;23275;48.914;12.566;2023-09-18T14:50:04;12.68;;;0.80;;
37409;SDS011;23275;48.914;12.566;2023-09-18T14:52:30;5.30;;;0.57;;